sensor_id;sensor_type;location;lat;lon;timestamp;P1;durP1;ratioP1;P2;durP2;ratioP2
26042;SDS011;13818;52.156;5.382;2024-03-06T00:02:23;17.83;;;10.73;;
26042;SDS011;13818;52.156;5.382;2024-03-06T00:04:50;18.40;;;9.70;;
26042;SDS011;13818;52.156;5.382;2024-03-06T00:07:18;17.15;;;10.85;;
26042;SDS011;13818;52.156;5.382;2024-03-06T00:09:44;19.88;;;9.88;;
26042;SDS011;13818;52.156;5.382;2024-03-06T00:12:12;16.88;;;9.75;;
26042;SDS011;13818;52.156;5.382;2024-03-06T00:14:38;12.57;;;8.85;;
26042;SDS011;13818;52.156;5.382;2024-03-06T00:17:05;14.18;;;10.00;;
26042;SDS011;13818;52.156;5.382;2024-03-06T00:19:32;15.88;;;10.07;;
26042;SDS011;13818;52.156;5.382;2024-03-06T00:21:59;16.00;;;9.82;;
26042;SDS011;13818;52.156;5.382;2024-03-06T00:24:27;17.27;;;10.95;;
26042;SDS011;13818;52.156;5.382;2024-03-06T00:26:54;19.55;;;10.77;;
26042;SDS011;13818;52.156;5.382;2024-03-06T00:29:20;19.70;;;10.30;;
26042;SDS011;13818;52.156;5.382;2024-03-06T00:31:47;17.20;;;11.20;;
26042;SDS011;13818;52.156;5.382;2024-03-06T00:34:13;18.67;;;9.38;;
26042;SDS011;13818;52.156;5.382;2024-03-06T00:36:40;19.42;;;9.93;;
26042;SDS011;13818;52.156;5.382;2024-03-06T00:39:07;16.58;;;10.85;;
26042;SDS011;13818;52.156;5.382;2024-03-06T00:41:35;15.82;;;9.43;;
26042;SDS011;13818;52.156;5.382;2024-03-06T00:44:02;17.02;;;10.18;;
26042;SDS011;13818;52.156;5.382;2024-03-06T00:46:29;15.68;;;8.25;;
26042;SDS011;13818;52.156;5.382;2024-03-06T00:48:55;14.57;;;9.70;;
26042;SDS011;13818;52.156;5.382;2024-03-06T00:51:22;12.40;;;8.65;;
26042;SDS011;13818;52.156;5.382;2024-03-06T00:53:48;17.20;;;8.88;;
26042;SDS011;13818;52.156;5.382;2024-03-06T00:56:14;16.83;;;8.60;;
26042;SDS011;13818;52.156;5.382;2024-03-06T00:58:42;15.50;;;9.10;;
26042;SDS011;13818;52.156;5.382;2024-03-06T01:01:09;13.77;;;8.50;;
26042;SDS011;13818;52.156;5.382;2024-03-06T01:03:37;14.23;;;9.20;;
26042;SDS011;13818;52.156;5.382;2024-03-06T01:06:03;13.70;;;8.65;;
26042;SDS011;13818;52.156;5.382;2024-03-06T01:08:30;15.80;;;9.05;;
26042;SDS011;13818;52.156;5.382;2024-03-06T01:10:57;20.20;;;9.38;;
26042;SDS011;13818;52.156;5.382;2024-03-06T01:13:23;20.10;;;9.05;;
26042;SDS011;13818;52.156;5.382;2024-03-06T01:15:51;17.65;;;9.27;;
26042;SDS011;13818;52.156;5.382;2024-03-06T01:18:18;17.35;;;9.48;;
26042;SDS011;13818;52.156;5.382;2024-03-06T01:20:44;19.73;;;10.93;;
26042;SDS011;13818;52.156;5.382;2024-03-06T01:23:11;18.90;;;10.60;;
26042;SDS011;13818;52.156;5.382;2024-03-06T01:25:37;24.00;;;10.77;;
26042;SDS011;13818;52.156;5.382;2024-03-06T01:28:04;18.48;;;9.43;;
26042;SDS011;13818;52.156;5.382;2024-03-06T01:30:31;20.00;;;10.55;;
26042;SDS011;13818;52.156;5.382;2024-03-06T01:32:59;18.98;;;10.30;;
26042;SDS011;13818;52.156;5.382;2024-03-06T01:35:25;14.27;;;7.95;;
26042;SDS011;13818;52.156;5.382;2024-03-06T01:37:52;14.70;;;9.43;;
26042;SDS011;13818;52.156;5.382;2024-03-06T01:40:18;18.50;;;9.52;;
26042;SDS011;13818;52.156;5.382;2024-03-06T01:42:46;18.38;;;8.80;;
26042;SDS011;13818;52.156;5.382;2024-03-06T01:45:13;14.40;;;10.02;;
26042;SDS011;13818;52.156;5.382;2024-03-06T01:47:39;16.85;;;11.18;;
26042;SDS011;13818;52.156;5.382;2024-03-06T01:50:09;18.13;;;11.18;;
26042;SDS011;13818;52.156;5.382;2024-03-06T01:52:36;14.73;;;8.65;;
26042;SDS011;13818;52.156;5.382;2024-03-06T01:55:03;18.77;;;11.07;;
26042;SDS011;13818;52.156;5.382;2024-03-06T01:57:31;17.27;;;9.68;;
26042;SDS011;13818;52.156;5.382;2024-03-06T01:59:59;18.77;;;10.18;;
26042;SDS011;13818;52.156;5.382;2024-03-06T02:02:26;19.40;;;9.15;;
26042;SDS011;13818;52.156;5.382;2024-03-06T02:04:53;16.02;;;11.05;;
26042;SDS011;13818;52.156;5.382;2024-03-06T02:07:21;15.07;;;9.68;;
26042;SDS011;13818;52.156;5.382;2024-03-06T02:09:49;16.88;;;10.20;;
26042;SDS011;13818;52.156;5.382;2024-03-06T02:12:17;18.88;;;10.48;;
26042;SDS011;13818;52.156;5.382;2024-03-06T02:14:43;12.93;;;8.77;;
26042;SDS011;13818;52.156;5.382;2024-03-06T02:17:10;21.45;;;10.80;;
26042;SDS011;13818;52.156;5.382;2024-03-06T02:19:37;24.65;;;14.10;;
26042;SDS011;13818;52.156;5.382;2024-03-06T02:22:06;22.15;;;10.80;;
26042;SDS011;13818;52.156;5.382;2024-03-06T02:24:33;26.33;;;11.18;;
26042;SDS011;13818;52.156;5.382;2024-03-06T02:26:59;15.52;;;10.63;;
26042;SDS011;13818;52.156;5.382;2024-03-06T02:29:26;15.95;;;10.65;;
26042;SDS011;13818;52.156;5.382;2024-03-06T02:31:52;14.60;;;8.50;;
26042;SDS011;13818;52.156;5.382;2024-03-06T02:34:19;16.52;;;10.90;;
26042;SDS011;13818;52.156;5.382;2024-03-06T02:36:45;15.90;;;9.52;;
26042;SDS011;13818;52.156;5.382;2024-03-06T02:39:13;17.95;;;10.23;;
26042;SDS011;13818;52.156;5.382;2024-03-06T02:41:40;22.02;;;10.57;;
26042;SDS011;13818;52.156;5.382;2024-03-06T02:44:06;20.50;;;11.30;;
26042;SDS011;13818;52.156;5.382;2024-03-06T02:46:33;17.27;;;9.80;;
26042;SDS011;13818;52.156;5.382;2024-03-06T02:49:00;17.83;;;11.13;;
26042;SDS011;13818;52.156;5.382;2024-03-06T02:51:26;22.08;;;13.15;;
26042;SDS011;13818;52.156;5.382;2024-03-06T02:53:53;24.77;;;11.82;;
26042;SDS011;13818;52.156;5.382;2024-03-06T02:56:21;18.25;;;9.63;;
26042;SDS011;13818;52.156;5.382;2024-03-06T02:58:47;16.70;;;10.90;;
26042;SDS011;13818;52.156;5.382;2024-03-06T03:01:14;17.52;;;10.48;;
26042;SDS011;13818;52.156;5.382;2024-03-06T03:03:40;21.13;;;11.60;;
26042;SDS011;13818;52.156;5.382;2024-03-06T03:06:07;19.38;;;10.85;;
26042;SDS011;13818;52.156;5.382;2024-03-06T03:08:34;11.98;;;7.93;;
26042;SDS011;13818;52.156;5.382;2024-03-06T03:11:00;20.35;;;10.32;;
26042;SDS011;13818;52.156;5.382;2024-03-06T03:13:29;17.70;;;10.80;;
26042;SDS011;13818;52.156;5.382;2024-03-06T03:18:23;14.20;;;8.05;;
26042;SDS011;13818;52.156;5.382;2024-03-06T03:20:49;17.88;;;9.80;;
26042;SDS011;13818;52.156;5.382;2024-03-06T03:23:16;16.95;;;10.55;;
26042;SDS011;13818;52.156;5.382;2024-03-06T03:25:47;11.88;;;9.32;;
26042;SDS011;13818;52.156;5.382;2024-03-06T03:28:13;21.98;;;11.25;;
26042;SDS011;13818;52.156;5.382;2024-03-06T03:30:41;20.23;;;11.05;;
26042;SDS011;13818;52.156;5.382;2024-03-06T03:33:10;18.17;;;9.82;;
26042;SDS011;13818;52.156;5.382;2024-03-06T03:35:36;18.05;;;9.48;;
26042;SDS011;13818;52.156;5.382;2024-03-06T03:38:04;16.10;;;11.40;;
26042;SDS011;13818;52.156;5.382;2024-03-06T03:40:31;18.35;;;11.18;;
26042;SDS011;13818;52.156;5.382;2024-03-06T03:42:58;20.45;;;11.73;;
26042;SDS011;13818;52.156;5.382;2024-03-06T03:45:31;16.35;;;9.32;;
26042;SDS011;13818;52.156;5.382;2024-03-06T03:47:58;21.33;;;11.93;;
26042;SDS011;13818;52.156;5.382;2024-03-06T03:50:25;12.52;;;9.27;;
26042;SDS011;13818;52.156;5.382;2024-03-06T03:52:52;16.42;;;10.07;;
26042;SDS011;13818;52.156;5.382;2024-03-06T03:55:18;16.02;;;9.70;;
26042;SDS011;13818;52.156;5.382;2024-03-06T03:57:45;17.63;;;10.40;;
26042;SDS011;13818;52.156;5.382;2024-03-06T04:00:12;15.35;;;11.10;;
26042;SDS011;13818;52.156;5.382;2024-03-06T04:02:39;18.42;;;10.30;;
26042;SDS011;13818;52.156;5.382;2024-03-06T04:05:07;18.00;;;9.73;;
26042;SDS011;13818;52.156;5.382;2024-03-06T04:10:01;14.20;;;6.97;;
26042;SDS011;13818;52.156;5.382;2024-03-06T04:12:28;12.00;;;8.23;;
26042;SDS011;13818;52.156;5.382;2024-03-06T04:14:54;14.65;;;9.35;;
26042;SDS011;13818;52.156;5.382;2024-03-06T04:17:21;20.90;;;10.63;;
26042;SDS011;13818;52.156;5.382;2024-03-06T04:19:47;17.88;;;9.73;;
26042;SDS011;13818;52.156;5.382;2024-03-06T04:22:16;13.88;;;8.73;;
26042;SDS011;13818;52.156;5.382;2024-03-06T04:24:45;16.55;;;9.48;;
26042;SDS011;13818;52.156;5.382;2024-03-06T04:27:12;18.52;;;10.23;;
26042;SDS011;13818;52.156;5.382;2024-03-06T04:29:39;13.88;;;10.27;;
26042;SDS011;13818;52.156;5.382;2024-03-06T04:32:05;17.55;;;11.60;;
26042;SDS011;13818;52.156;5.382;2024-03-06T04:34:32;16.63;;;11.20;;
26042;SDS011;13818;52.156;5.382;2024-03-06T04:36:58;17.15;;;11.07;;
26042;SDS011;13818;52.156;5.382;2024-03-06T04:39:28;17.83;;;10.85;;
26042;SDS011;13818;52.156;5.382;2024-03-06T04:41:54;16.40;;;9.60;;
26042;SDS011;13818;52.156;5.382;2024-03-06T04:44:21;15.85;;;9.02;;
26042;SDS011;13818;52.156;5.382;2024-03-06T04:46:49;18.10;;;10.45;;
26042;SDS011;13818;52.156;5.382;2024-03-06T04:49:15;17.42;;;11.68;;
26042;SDS011;13818;52.156;5.382;2024-03-06T04:51:42;13.57;;;9.48;;
26042;SDS011;13818;52.156;5.382;2024-03-06T04:54:08;17.10;;;8.90;;
26042;SDS011;13818;52.156;5.382;2024-03-06T04:56:36;14.90;;;9.35;;
26042;SDS011;13818;52.156;5.382;2024-03-06T04:59:03;14.02;;;8.60;;
26042;SDS011;13818;52.156;5.382;2024-03-06T05:01:30;16.15;;;8.85;;
26042;SDS011;13818;52.156;5.382;2024-03-06T05:03:57;16.75;;;8.38;;
26042;SDS011;13818;52.156;5.382;2024-03-06T05:06:23;19.33;;;8.60;;
26042;SDS011;13818;52.156;5.382;2024-03-06T05:08:50;13.00;;;10.18;;
26042;SDS011;13818;52.156;5.382;2024-03-06T05:11:16;18.35;;;11.02;;
26042;SDS011;13818;52.156;5.382;2024-03-06T05:13:44;20.88;;;11.43;;
26042;SDS011;13818;52.156;5.382;2024-03-06T05:16:10;18.70;;;10.43;;
26042;SDS011;13818;52.156;5.382;2024-03-06T05:18:37;19.48;;;10.25;;
26042;SDS011;13818;52.156;5.382;2024-03-06T05:21:04;14.00;;;10.50;;
26042;SDS011;13818;52.156;5.382;2024-03-06T05:23:30;17.40;;;9.93;;
26042;SDS011;13818;52.156;5.382;2024-03-06T05:25:57;16.88;;;11.98;;
26042;SDS011;13818;52.156;5.382;2024-03-06T05:28:23;17.35;;;10.23;;
26042;SDS011;13818;52.156;5.382;2024-03-06T05:30:51;16.73;;;9.45;;
26042;SDS011;13818;52.156;5.382;2024-03-06T05:33:17;12.20;;;9.02;;
26042;SDS011;13818;52.156;5.382;2024-03-06T05:35:44;22.05;;;12.30;;
26042;SDS011;13818;52.156;5.382;2024-03-06T05:38:11;15.85;;;9.82;;
26042;SDS011;13818;52.156;5.382;2024-03-06T05:40:37;14.52;;;8.90;;
26042;SDS011;13818;52.156;5.382;2024-03-06T05:43:05;19.60;;;9.57;;
26042;SDS011;13818;52.156;5.382;2024-03-06T05:45:32;20.38;;;8.50;;
26042;SDS011;13818;52.156;5.382;2024-03-06T05:48:00;16.42;;;10.07;;
26042;SDS011;13818;52.156;5.382;2024-03-06T05:50:28;20.55;;;11.95;;
26042;SDS011;13818;52.156;5.382;2024-03-06T05:52:55;17.52;;;9.48;;
26042;SDS011;13818;52.156;5.382;2024-03-06T05:55:21;24.40;;;11.88;;
26042;SDS011;13818;52.156;5.382;2024-03-06T05:57:48;23.75;;;9.93;;
26042;SDS011;13818;52.156;5.382;2024-03-06T06:00:16;11.15;;;8.30;;
26042;SDS011;13818;52.156;5.382;2024-03-06T06:02:43;15.38;;;9.55;;
26042;SDS011;13818;52.156;5.382;2024-03-06T06:05:11;15.82;;;10.05;;
26042;SDS011;13818;52.156;5.382;2024-03-06T06:07:38;17.75;;;10.15;;
26042;SDS011;13818;52.156;5.382;2024-03-06T06:10:06;13.43;;;8.73;;
26042;SDS011;13818;52.156;5.382;2024-03-06T06:12:35;14.40;;;8.38;;
26042;SDS011;13818;52.156;5.382;2024-03-06T06:15:01;16.92;;;9.02;;
26042;SDS011;13818;52.156;5.382;2024-03-06T06:17:28;12.60;;;7.97;;
26042;SDS011;13818;52.156;5.382;2024-03-06T06:19:54;15.65;;;9.32;;
26042;SDS011;13818;52.156;5.382;2024-03-06T06:22:22;17.88;;;9.43;;
26042;SDS011;13818;52.156;5.382;2024-03-06T06:24:49;15.93;;;10.15;;
26042;SDS011;13818;52.156;5.382;2024-03-06T06:27:16;14.38;;;8.38;;
26042;SDS011;13818;52.156;5.382;2024-03-06T06:29:44;12.90;;;8.60;;
26042;SDS011;13818;52.156;5.382;2024-03-06T06:32:10;14.73;;;9.23;;
26042;SDS011;13818;52.156;5.382;2024-03-06T06:34:37;13.00;;;9.05;;
26042;SDS011;13818;52.156;5.382;2024-03-06T06:37:03;11.48;;;7.97;;
26042;SDS011;13818;52.156;5.382;2024-03-06T06:39:31;17.00;;;10.07;;
26042;SDS011;13818;52.156;5.382;2024-03-06T06:41:59;13.80;;;7.43;;
26042;SDS011;13818;52.156;5.382;2024-03-06T06:44:26;12.93;;;7.50;;
26042;SDS011;13818;52.156;5.382;2024-03-06T06:46:52;14.60;;;8.45;;
26042;SDS011;13818;52.156;5.382;2024-03-06T06:49:19;12.55;;;9.10;;
26042;SDS011;13818;52.156;5.382;2024-03-06T06:51:45;17.75;;;7.80;;
26042;SDS011;13818;52.156;5.382;2024-03-06T06:54:13;14.05;;;8.02;;
26042;SDS011;13818;52.156;5.382;2024-03-06T06:56:41;12.95;;;8.60;;
26042;SDS011;13818;52.156;5.382;2024-03-06T06:59:08;14.18;;;7.97;;
26042;SDS011;13818;52.156;5.382;2024-03-06T07:01:34;10.98;;;7.25;;
26042;SDS011;13818;52.156;5.382;2024-03-06T07:04:03;14.43;;;6.85;;
26042;SDS011;13818;52.156;5.382;2024-03-06T07:08:56;10.07;;;6.78;;
26042;SDS011;13818;52.156;5.382;2024-03-06T07:11:22;11.82;;;8.75;;
26042;SDS011;13818;52.156;5.382;2024-03-06T07:13:50;13.10;;;8.60;;
26042;SDS011;13818;52.156;5.382;2024-03-06T07:16:17;16.13;;;9.40;;
26042;SDS011;13818;52.156;5.382;2024-03-06T07:18:44;8.80;;;6.80;;
26042;SDS011;13818;52.156;5.382;2024-03-06T07:21:11;14.38;;;8.10;;
26042;SDS011;13818;52.156;5.382;2024-03-06T07:23:39;13.65;;;6.78;;
26042;SDS011;13818;52.156;5.382;2024-03-06T07:26:06;13.25;;;7.93;;
26042;SDS011;13818;52.156;5.382;2024-03-06T07:28:32;13.43;;;8.18;;
26042;SDS011;13818;52.156;5.382;2024-03-06T07:31:00;20.77;;;9.70;;
26042;SDS011;13818;52.156;5.382;2024-03-06T07:33:27;16.70;;;7.63;;
26042;SDS011;13818;52.156;5.382;2024-03-06T07:35:54;14.50;;;10.23;;
26042;SDS011;13818;52.156;5.382;2024-03-06T07:38:21;15.63;;;9.93;;
26042;SDS011;13818;52.156;5.382;2024-03-06T07:40:48;20.38;;;11.20;;
26042;SDS011;13818;52.156;5.382;2024-03-06T07:43:16;23.77;;;13.00;;
26042;SDS011;13818;52.156;5.382;2024-03-06T07:48:11;11.27;;;7.43;;
26042;SDS011;13818;52.156;5.382;2024-03-06T07:50:37;18.10;;;10.20;;
26042;SDS011;13818;52.156;5.382;2024-03-06T07:53:05;15.63;;;9.80;;
26042;SDS011;13818;52.156;5.382;2024-03-06T07:55:31;23.55;;;10.52;;
26042;SDS011;13818;52.156;5.382;2024-03-06T07:57:58;18.95;;;10.48;;
26042;SDS011;13818;52.156;5.382;2024-03-06T08:00:24;18.40;;;10.32;;
26042;SDS011;13818;52.156;5.382;2024-03-06T08:02:52;19.63;;;10.77;;
26042;SDS011;13818;52.156;5.382;2024-03-06T08:05:20;19.50;;;11.63;;
26042;SDS011;13818;52.156;5.382;2024-03-06T08:07:46;22.60;;;10.52;;
26042;SDS011;13818;52.156;5.382;2024-03-06T08:10:14;19.95;;;11.70;;
26042;SDS011;13818;52.156;5.382;2024-03-06T08:12:43;18.58;;;8.27;;
26042;SDS011;13818;52.156;5.382;2024-03-06T08:15:13;19.13;;;11.73;;
26042;SDS011;13818;52.156;5.382;2024-03-06T08:17:40;16.60;;;9.38;;
26042;SDS011;13818;52.156;5.382;2024-03-06T08:20:08;19.60;;;9.07;;
26042;SDS011;13818;52.156;5.382;2024-03-06T08:22:38;17.77;;;9.73;;
26042;SDS011;13818;52.156;5.382;2024-03-06T08:25:06;18.77;;;10.77;;
26042;SDS011;13818;52.156;5.382;2024-03-06T08:27:34;16.23;;;8.77;;
26042;SDS011;13818;52.156;5.382;2024-03-06T08:30:01;18.77;;;9.93;;
26042;SDS011;13818;52.156;5.382;2024-03-06T08:32:29;19.30;;;9.98;;
26042;SDS011;13818;52.156;5.382;2024-03-06T08:34:56;12.85;;;8.45;;
26042;SDS011;13818;52.156;5.382;2024-03-06T08:37:23;14.18;;;8.70;;
26042;SDS011;13818;52.156;5.382;2024-03-06T08:39:50;17.55;;;9.77;;
26042;SDS011;13818;52.156;5.382;2024-03-06T08:42:17;19.67;;;9.38;;
26042;SDS011;13818;52.156;5.382;2024-03-06T08:44:44;20.75;;;10.57;;
26042;SDS011;13818;52.156;5.382;2024-03-06T08:47:11;19.10;;;10.23;;
26042;SDS011;13818;52.156;5.382;2024-03-06T08:49:38;20.60;;;11.82;;
26042;SDS011;13818;52.156;5.382;2024-03-06T08:52:05;19.25;;;9.23;;
26042;SDS011;13818;52.156;5.382;2024-03-06T08:54:31;17.50;;;11.10;;
26042;SDS011;13818;52.156;5.382;2024-03-06T08:56:59;16.80;;;10.30;;
26042;SDS011;13818;52.156;5.382;2024-03-06T08:59:28;20.20;;;11.85;;
26042;SDS011;13818;52.156;5.382;2024-03-06T09:01:54;16.98;;;10.30;;
26042;SDS011;13818;52.156;5.382;2024-03-06T09:04:21;23.08;;;8.63;;
26042;SDS011;13818;52.156;5.382;2024-03-06T09:06:48;19.65;;;10.88;;
26042;SDS011;13818;52.156;5.382;2024-03-06T09:09:15;18.75;;;10.23;;
26042;SDS011;13818;52.156;5.382;2024-03-06T09:11:41;20.33;;;11.35;;
26042;SDS011;13818;52.156;5.382;2024-03-06T09:14:09;21.58;;;10.85;;
26042;SDS011;13818;52.156;5.382;2024-03-06T09:16:35;25.30;;;11.90;;
26042;SDS011;13818;52.156;5.382;2024-03-06T09:19:02;22.05;;;11.95;;
26042;SDS011;13818;52.156;5.382;2024-03-06T09:21:29;22.08;;;10.35;;
26042;SDS011;13818;52.156;5.382;2024-03-06T09:23:55;22.05;;;11.35;;
26042;SDS011;13818;52.156;5.382;2024-03-06T09:26:21;25.13;;;11.20;;
26042;SDS011;13818;52.156;5.382;2024-03-06T09:28:48;20.85;;;12.40;;
26042;SDS011;13818;52.156;5.382;2024-03-06T09:31:16;21.70;;;12.00;;
26042;SDS011;13818;52.156;5.382;2024-03-06T09:33:43;25.73;;;13.32;;
26042;SDS011;13818;52.156;5.382;2024-03-06T09:36:11;17.48;;;10.98;;
26042;SDS011;13818;52.156;5.382;2024-03-06T09:38:39;20.95;;;11.00;;
26042;SDS011;13818;52.156;5.382;2024-03-06T09:41:06;24.55;;;12.30;;
26042;SDS011;13818;52.156;5.382;2024-03-06T09:43:33;20.35;;;13.27;;
26042;SDS011;13818;52.156;5.382;2024-03-06T09:46:00;19.73;;;10.52;;
26042;SDS011;13818;52.156;5.382;2024-03-06T09:48:29;23.67;;;11.77;;
26042;SDS011;13818;52.156;5.382;2024-03-06T09:50:57;19.75;;;13.95;;
26042;SDS011;13818;52.156;5.382;2024-03-06T09:53:27;22.50;;;12.02;;
26042;SDS011;13818;52.156;5.382;2024-03-06T09:55:54;18.15;;;11.05;;
26042;SDS011;13818;52.156;5.382;2024-03-06T09:58:23;25.42;;;11.88;;
26042;SDS011;13818;52.156;5.382;2024-03-06T10:00:49;22.17;;;13.15;;
26042;SDS011;13818;52.156;5.382;2024-03-06T10:03:17;20.17;;;12.40;;
26042;SDS011;13818;52.156;5.382;2024-03-06T10:05:46;26.48;;;14.73;;
26042;SDS011;13818;52.156;5.382;2024-03-06T10:08:13;21.98;;;12.32;;
26042;SDS011;13818;52.156;5.382;2024-03-06T10:10:41;17.10;;;11.80;;
26042;SDS011;13818;52.156;5.382;2024-03-06T10:13:08;19.80;;;11.93;;
26042;SDS011;13818;52.156;5.382;2024-03-06T10:15:34;25.67;;;11.88;;
26042;SDS011;13818;52.156;5.382;2024-03-06T10:18:11;21.00;;;12.20;;
26042;SDS011;13818;52.156;5.382;2024-03-06T10:20:38;17.35;;;10.32;;
26042;SDS011;13818;52.156;5.382;2024-03-06T10:23:07;21.80;;;12.45;;
26042;SDS011;13818;52.156;5.382;2024-03-06T10:25:34;18.92;;;10.70;;
26042;SDS011;13818;52.156;5.382;2024-03-06T10:28:04;17.65;;;11.45;;
26042;SDS011;13818;52.156;5.382;2024-03-06T10:30:31;23.52;;;10.52;;
26042;SDS011;13818;52.156;5.382;2024-03-06T10:33:00;17.40;;;11.52;;
26042;SDS011;13818;52.156;5.382;2024-03-06T10:35:27;20.15;;;10.38;;
26042;SDS011;13818;52.156;5.382;2024-03-06T10:37:54;21.27;;;11.85;;
26042;SDS011;13818;52.156;5.382;2024-03-06T10:40:23;17.23;;;10.15;;
26042;SDS011;13818;52.156;5.382;2024-03-06T10:42:49;17.13;;;10.02;;
26042;SDS011;13818;52.156;5.382;2024-03-06T10:45:16;17.17;;;10.65;;
26042;SDS011;13818;52.156;5.382;2024-03-06T10:47:47;19.05;;;9.98;;
26042;SDS011;13818;52.156;5.382;2024-03-06T10:50:14;19.83;;;10.55;;
26042;SDS011;13818;52.156;5.382;2024-03-06T10:52:41;22.92;;;11.38;;
26042;SDS011;13818;52.156;5.382;2024-03-06T10:55:13;21.75;;;11.88;;
26042;SDS011;13818;52.156;5.382;2024-03-06T10:57:44;16.90;;;8.85;;
26042;SDS011;13818;52.156;5.382;2024-03-06T11:00:13;19.67;;;11.45;;
26042;SDS011;13818;52.156;5.382;2024-03-06T11:02:45;19.60;;;11.15;;
26042;SDS011;13818;52.156;5.382;2024-03-06T11:05:14;17.42;;;10.77;;
26042;SDS011;13818;52.156;5.382;2024-03-06T11:07:41;17.77;;;10.77;;
26042;SDS011;13818;52.156;5.382;2024-03-06T11:10:09;15.48;;;6.93;;
26042;SDS011;13818;52.156;5.382;2024-03-06T11:12:41;17.02;;;9.75;;
26042;SDS011;13818;52.156;5.382;2024-03-06T11:15:12;13.43;;;9.70;;
26042;SDS011;13818;52.156;5.382;2024-03-06T11:17:40;16.65;;;9.20;;
26042;SDS011;13818;52.156;5.382;2024-03-06T11:20:14;18.27;;;10.10;;
26042;SDS011;13818;52.156;5.382;2024-03-06T11:23:01;15.90;;;10.18;;
26042;SDS011;13818;52.156;5.382;2024-03-06T11:28:24;13.75;;;7.65;;
26042;SDS011;13818;52.156;5.382;2024-03-06T11:30:56;14.90;;;9.48;;
26042;SDS011;13818;52.156;5.382;2024-03-06T11:33:23;16.23;;;9.15;;
26042;SDS011;13818;52.156;5.382;2024-03-06T11:38:42;15.48;;;8.27;;
26042;SDS011;13818;52.156;5.382;2024-03-06T11:41:09;16.05;;;8.90;;
26042;SDS011;13818;52.156;5.382;2024-03-06T11:43:41;13.45;;;8.48;;
26042;SDS011;13818;52.156;5.382;2024-03-06T11:46:10;12.63;;;8.18;;
26042;SDS011;13818;52.156;5.382;2024-03-06T11:51:03;10.10;;;7.20;;
26042;SDS011;13818;52.156;5.382;2024-03-06T11:53:30;11.30;;;7.65;;
26042;SDS011;13818;52.156;5.382;2024-03-06T11:55:59;12.68;;;8.48;;
26042;SDS011;13818;52.156;5.382;2024-03-06T11:58:26;14.40;;;7.90;;
26042;SDS011;13818;52.156;5.382;2024-03-06T12:00:53;13.82;;;9.77;;
26042;SDS011;13818;52.156;5.382;2024-03-06T12:03:21;15.90;;;9.32;;
26042;SDS011;13818;52.156;5.382;2024-03-06T12:05:50;12.30;;;8.27;;
26042;SDS011;13818;52.156;5.382;2024-03-06T12:08:16;13.48;;;7.68;;
26042;SDS011;13818;52.156;5.382;2024-03-06T12:10:44;15.98;;;8.73;;
26042;SDS011;13818;52.156;5.382;2024-03-06T12:15:41;11.27;;;6.35;;
26042;SDS011;13818;52.156;5.382;2024-03-06T12:18:08;10.45;;;7.05;;
26042;SDS011;13818;52.156;5.382;2024-03-06T12:20:36;12.40;;;6.68;;
26042;SDS011;13818;52.156;5.382;2024-03-06T12:23:10;10.75;;;7.07;;
26042;SDS011;13818;52.156;5.382;2024-03-06T12:25:45;13.00;;;6.47;;
26042;SDS011;13818;52.156;5.382;2024-03-06T12:28:11;11.13;;;7.18;;
26042;SDS011;13818;52.156;5.382;2024-03-06T12:30:40;9.85;;;6.40;;
26042;SDS011;13818;52.156;5.382;2024-03-06T12:33:08;10.45;;;6.78;;
26042;SDS011;13818;52.156;5.382;2024-03-06T12:35:35;11.63;;;6.20;;
26042;SDS011;13818;52.156;5.382;2024-03-06T12:38:11;9.38;;;5.47;;
26042;SDS011;13818;52.156;5.382;2024-03-06T12:40:38;7.45;;;4.70;;
26042;SDS011;13818;52.156;5.382;2024-03-06T12:43:05;15.18;;;5.97;;
26042;SDS011;13818;52.156;5.382;2024-03-06T12:45:32;9.13;;;4.78;;
26042;SDS011;13818;52.156;5.382;2024-03-06T12:47:59;8.68;;;4.47;;
26042;SDS011;13818;52.156;5.382;2024-03-06T12:50:25;6.60;;;3.13;;
26042;SDS011;13818;52.156;5.382;2024-03-06T12:52:53;7.10;;;4.28;;
26042;SDS011;13818;52.156;5.382;2024-03-06T12:55:19;6.07;;;3.72;;
26042;SDS011;13818;52.156;5.382;2024-03-06T12:57:47;7.28;;;3.35;;
26042;SDS011;13818;52.156;5.382;2024-03-06T13:00:15;3.80;;;3.08;;
26042;SDS011;13818;52.156;5.382;2024-03-06T13:02:42;4.85;;;2.67;;
26042;SDS011;13818;52.156;5.382;2024-03-06T13:05:10;5.00;;;2.67;;
26042;SDS011;13818;52.156;5.382;2024-03-06T13:07:37;7.13;;;3.70;;
26042;SDS011;13818;52.156;5.382;2024-03-06T13:10:06;6.40;;;3.30;;
26042;SDS011;13818;52.156;5.382;2024-03-06T13:12:35;7.60;;;3.63;;
26042;SDS011;13818;52.156;5.382;2024-03-06T13:15:03;7.22;;;3.13;;
26042;SDS011;13818;52.156;5.382;2024-03-06T13:17:33;9.38;;;3.75;;
26042;SDS011;13818;52.156;5.382;2024-03-06T13:19:59;5.47;;;3.22;;
26042;SDS011;13818;52.156;5.382;2024-03-06T13:22:26;6.13;;;2.97;;
26042;SDS011;13818;52.156;5.382;2024-03-06T13:24:53;11.70;;;3.45;;
26042;SDS011;13818;52.156;5.382;2024-03-06T13:27:21;6.05;;;3.42;;
26042;SDS011;13818;52.156;5.382;2024-03-06T13:29:48;5.53;;;3.00;;
26042;SDS011;13818;52.156;5.382;2024-03-06T13:32:16;6.05;;;3.70;;
26042;SDS011;13818;52.156;5.382;2024-03-06T13:34:42;4.95;;;2.72;;
26042;SDS011;13818;52.156;5.382;2024-03-06T13:37:09;4.80;;;2.38;;
26042;SDS011;13818;52.156;5.382;2024-03-06T13:39:36;3.17;;;1.65;;
26042;SDS011;13818;52.156;5.382;2024-03-06T13:42:04;6.60;;;2.13;;
26042;SDS011;13818;52.156;5.382;2024-03-06T13:44:34;6.00;;;1.90;;
26042;SDS011;13818;52.156;5.382;2024-03-06T13:47:01;4.75;;;2.30;;
26042;SDS011;13818;52.156;5.382;2024-03-06T13:49:34;3.95;;;2.17;;
26042;SDS011;13818;52.156;5.382;2024-03-06T13:52:02;3.22;;;1.83;;
26042;SDS011;13818;52.156;5.382;2024-03-06T13:54:30;3.97;;;2.30;;
26042;SDS011;13818;52.156;5.382;2024-03-06T13:56:57;6.20;;;2.35;;
26042;SDS011;13818;52.156;5.382;2024-03-06T13:59:26;5.85;;;2.33;;
26042;SDS011;13818;52.156;5.382;2024-03-06T14:01:55;5.15;;;2.67;;
26042;SDS011;13818;52.156;5.382;2024-03-06T14:06:49;5.60;;;3.42;;
26042;SDS011;13818;52.156;5.382;2024-03-06T14:09:15;9.43;;;3.47;;
26042;SDS011;13818;52.156;5.382;2024-03-06T14:11:42;5.15;;;2.70;;
26042;SDS011;13818;52.156;5.382;2024-03-06T14:14:08;4.72;;;2.92;;
26042;SDS011;13818;52.156;5.382;2024-03-06T14:16:36;7.78;;;3.97;;
26042;SDS011;13818;52.156;5.382;2024-03-06T14:19:04;7.00;;;2.85;;
26042;SDS011;13818;52.156;5.382;2024-03-06T14:21:30;7.03;;;3.50;;
26042;SDS011;13818;52.156;5.382;2024-03-06T14:23:57;5.63;;;2.85;;
26042;SDS011;13818;52.156;5.382;2024-03-06T14:26:24;6.50;;;3.95;;
26042;SDS011;13818;52.156;5.382;2024-03-06T14:28:51;8.82;;;4.43;;
26042;SDS011;13818;52.156;5.382;2024-03-06T14:31:17;6.15;;;3.35;;
26042;SDS011;13818;52.156;5.382;2024-03-06T14:33:44;7.93;;;3.95;;
26042;SDS011;13818;52.156;5.382;2024-03-06T14:36:12;6.72;;;3.17;;
26042;SDS011;13818;52.156;5.382;2024-03-06T14:38:39;6.30;;;3.78;;
26042;SDS011;13818;52.156;5.382;2024-03-06T14:41:05;6.05;;;3.58;;
26042;SDS011;13818;52.156;5.382;2024-03-06T14:43:34;6.18;;;3.08;;
26042;SDS011;13818;52.156;5.382;2024-03-06T14:46:03;5.57;;;3.03;;
26042;SDS011;13818;52.156;5.382;2024-03-06T14:48:30;5.30;;;3.00;;
26042;SDS011;13818;52.156;5.382;2024-03-06T14:50:57;6.55;;;3.40;;
26042;SDS011;13818;52.156;5.382;2024-03-06T14:53:25;7.00;;;3.83;;
26042;SDS011;13818;52.156;5.382;2024-03-06T14:55:51;4.82;;;3.15;;